Latest Weather Observations for St George

IDQ60801

Issued at 3:32 pm EST Sunday 30 August 2015 (issued every 30 minutes, with the page automatically refreshed every 10 minutes)

About weather observations | Map of weather stations | Latest weather observations for QLD | Other Formats
Station Details ID: 043109 Name: ST GEORGE AIRPORT Lat: -28.05 Lon: 148.59 Height: 198.5 m
Data from the previous 72 hours. | See also: Recent months at St George
Date/Time
EST
Temp
°C
App
Temp
°C
Dew
Point
Rel
Hum
%
Delta-T
°C
Wind Press
QNH
hPa
Press
MSL
hPa
Rain
since 9 am
mm
Dir
 
Spd
km/h
Gust
km/h
Spd
kts
Gust
kts
30/03:30pm 18.0 12.6 1.1 32 7.6 SSW 19 32 10 17 1018.2 - 0.0
30/03:00pm 17.6 11.4 -0.2 30 7.7 SW 22 30 12 16 1018.4 1018.3 0.0
30/02:30pm 17.2 11.2 0.8 33 7.3 SW 22 33 12 18 1018.6 - 0.0
30/02:00pm 17.4 11.4 1.0 33 7.3 SSW 22 32 12 17 1018.9 - 0.0
30/01:30pm 18.3 13.1 3.4 37 7.0 W 20 32 11 17 1019.2 - 0.0
30/01:00pm 16.9 12.1 2.5 38 6.6 SW 17 37 9 20 1019.6 - 0.0
30/12:30pm 16.7 11.9 2.7 39 6.4 SSW 17 28 9 15 1020.1 - 0.0
30/12:00pm 16.4 11.6 2.8 40 6.2 S 17 24 9 13 1020.6 1020.5 0.0
30/11:30am 16.7 12.9 4.1 43 6.0 S 13 24 7 13 1021.0 - 0.0
30/11:00am 15.3 11.6 2.1 41 5.9 S 11 24 6 13 1021.7 - 0.0
30/10:30am 15.2 11.4 4.0 47 5.2 SE 13 24 7 13 1022.0 - 0.0
30/10:00am 14.4 9.8 3.8 49 4.9 SSE 17 22 9 12 1022.3 - 0.0
30/09:30am 13.9 10.4 5.3 56 4.1 S 13 20 7 11 1022.3 - 0.0
30/09:00am 12.7 8.3 4.9 59 3.6 SSE 17 22 9 12 1022.4 1022.3 0.0
30/08:30am 11.1 8.1 5.8 70 2.5 S 11 17 6 9 1022.2 - 0.0
30/08:00am 9.5 7.0 6.4 81 1.5 SSW 9 13 5 7 1021.9 - 0.0
30/07:30am 7.5 5.9 6.3 92 0.6 SSW 4 9 2 5 1021.8 - 0.0
30/07:00am 4.9 3.5 3.7 92 0.5 CALM 0 0 0 0 1021.4 - 0.0
30/06:30am 3.9 2.3 2.6 91 0.5 CALM 0 0 0 0 1021.1 - 0.0
30/06:00am 4.4 2.9 3.1 91 0.5 CALM 0 0 0 0 1020.8 1020.7 0.0
30/05:30am 4.7 3.3 3.5 92 0.5 CALM 0 0 0 0 1020.6 - 0.0
30/05:00am 4.6 3.2 3.3 91 0.5 CALM 0 0 0 0 1020.5 - 0.0
30/04:30am 4.6 3.1 2.9 89 0.7 CALM 0 0 0 0 1020.3 - 0.0
30/04:00am 4.6 3.1 2.8 88 0.7 CALM 0 0 0 0 1020.3 - 0.0
30/03:30am 4.8 3.3 3.1 89 0.7 CALM 0 0 0 0 1020.2 - 0.0
30/03:00am 5.5 4.1 3.7 88 0.8 CALM 0 0 0 0 1020.6 1020.5 0.0
30/02:30am 5.6 4.2 3.4 86 0.9 CALM 0 0 0 0 1020.7 - 0.0
30/02:00am 6.8 5.6 4.5 85 1.0 CALM 0 0 0 0 1020.8 - 0.0
30/01:30am 7.6 6.5 5.1 84 1.1 CALM 0 0 0 0 1021.1 - 0.0
30/01:00am 8.0 6.5 5.1 82 1.3 SSE 2 6 1 3 1021.3 - 0.0
30/12:30am 8.3 5.9 5.1 80 1.4 SSE 7 7 4 4 1021.5 - 0.0
30/12:00am 7.9 6.0 4.7 80 1.4 SSE 4 6 2 3 1021.5 1021.4 0.0
 
Date/Time
EST
Temp
°C
App
Temp
°C
Dew
Point
Rel
Hum
%
Delta-T
°C
Wind Press
QNH
hPa
Press
MSL
hPa
Rain
since 9 am
mm
Dir
 
Spd
km/h
Gust
km/h
Spd
kts
Gust
kts
29/11:30pm 8.4 6.5 5.0 79 1.5 SSW 4 6 2 3 1021.5 - 0.0
29/11:00pm 9.1 7.3 5.3 77 1.7 WSW 4 7 2 4 1021.7 - 0.0
29/10:30pm 8.8 6.1 5.4 79 1.5 SW 9 11 5 6 1021.3 - 0.0
29/10:00pm 8.7 7.6 5.3 79 1.5 CALM 0 4 0 2 1021.5 - 0.0
29/09:30pm 9.5 7.3 5.5 76 1.8 NNW 6 7 3 4 1021.5 - 0.0
29/09:00pm 10.3 9.3 5.7 73 2.1 CALM 0 6 0 3 1021.2 1021.1 0.0
29/08:30pm 11.2 10.1 5.3 67 2.7 CALM 0 0 0 0 1021.2 - 0.0
29/08:00pm 12.2 9.9 4.9 61 3.4 SE 6 7 3 4 1021.1 - 0.0
29/07:30pm 14.2 11.3 4.8 53 4.4 SE 9 11 5 6 1021.1 - 0.0
29/07:00pm 14.5 11.7 5.3 54 4.4 SSE 9 11 5 6 1020.8 - 0.0
29/06:30pm 15.3 12.7 6.1 54 4.5 SSE 9 11 5 6 1020.6 - 0.0
29/06:00pm 16.4 14.3 6.0 50 5.1 SSE 6 9 3 5 1020.6 1020.5 0.0
29/05:30pm 16.9 14.5 5.2 46 5.7 SSE 7 11 4 6 1020.5 - 0.0
29/05:00pm 17.7 14.4 4.3 41 6.4 S 11 17 6 9 1020.1 - 0.0
29/04:30pm 17.9 14.3 3.0 37 6.9 SSE 11 13 6 7 1019.9 - 0.0
29/04:00pm 18.3 14.6 2.2 34 7.4 ESE 11 17 6 9 1019.8 - 0.0
29/03:30pm 18.3 14.3 2.6 35 7.3 S 13 20 7 11 1019.8 - 0.0
29/03:00pm 19.3 16.2 3.5 35 7.5 S 9 19 5 10 1019.8 1019.7 0.0
29/02:30pm 18.4 14.4 3.1 36 7.2 SSE 13 17 7 9 1020.5 - 0.0
29/02:00pm 19.2 15.8 2.1 32 7.9 SE 9 17 5 9 1020.8 - 0.0
29/01:30pm 18.5 14.6 1.1 31 7.8 S 11 17 6 9 1021.4 - 0.0
29/01:00pm 18.8 14.3 2.2 33 7.7 S 15 22 8 12 1021.9 - 0.0
29/12:30pm 18.6 14.1 2.0 33 7.6 SSE 15 24 8 13 1022.3 - 0.0
29/12:00pm 18.2 13.6 1.7 33 7.5 SE 15 24 8 13 1022.9 1022.8 0.0
29/11:30am 18.2 14.1 2.1 34 7.4 SE 13 20 7 11 1023.3 - 0.0
29/11:00am 17.7 14.0 4.6 42 6.3 E 13 24 7 13 1024.0 - 0.0
29/10:30am 16.8 13.2 5.1 46 5.6 ENE 13 19 7 10 1024.2 - 0.0
29/10:00am 16.1 12.4 6.3 52 4.8 E 15 19 8 10 1024.4 - 0.0
29/09:30am 15.5 12.3 6.8 56 4.3 ESE 13 17 7 9 1024.6 - 0.0
29/09:00am 13.6 10.2 5.7 59 3.7 E 13 20 7 11 1024.7 1024.6 0.0
29/08:30am 12.2 11.0 6.5 68 2.7 ENE 2 9 1 5 1024.9 - 0.0
29/08:00am 10.3 8.2 6.6 78 1.8 ENE 7 9 4 5 1024.5 - 0.0
29/07:30am 8.7 6.5 6.3 85 1.1 NNE 7 11 4 6 1024.0 - 0.0
29/07:00am 7.9 5.6 5.9 87 0.9 SE 7 9 4 5 1023.8 - 0.0
29/06:30am 7.2 4.7 4.9 85 1.0 ESE 7 9 4 5 1023.6 - 0.0
29/06:00am 7.0 4.5 4.8 86 1.0 SE 7 9 4 5 1023.1 1023.0 0.0
29/05:30am 6.9 4.1 5.2 89 0.8 SE 9 11 5 6 1023.1 - 0.0
29/05:00am 6.1 3.2 4.6 90 0.7 SSE 9 19 5 10 1022.6 - 0.0
29/04:30am 5.8 3.4 4.1 89 0.7 NE 6 7 3 4 1022.4 - 0.0
29/04:00am 6.1 3.5 4.3 88 0.8 ENE 7 7 4 4 1022.5 - 0.0
29/03:30am 6.4 5.2 4.7 89 0.7 CALM 0 0 0 0 1022.7 - 0.0
29/03:00am 6.6 5.4 4.8 88 0.8 CALM 0 0 0 0 1022.7 1022.6 0.0
29/02:30am 6.6 5.0 4.4 86 1.0 SSE 2 6 1 3 1022.9 - 0.0
29/02:00am 6.9 5.7 4.6 85 1.0 CALM 0 0 0 0 1023.2 - 0.0
29/01:30am 7.0 5.3 4.0 81 1.3 ESE 2 6 1 3 1023.5 - 0.0
29/01:00am 7.7 5.2 3.7 76 1.7 E 6 7 3 4 1023.8 - 0.0
29/12:30am 9.2 6.5 5.4 77 1.7 ESE 9 11 5 6 1023.8 - 0.0
29/12:00am 9.4 6.6 5.2 75 1.9 ESE 9 11 5 6 1024.1 1024.0 0.0
 
Date/Time
EST
Temp
°C
App
Temp
°C
Dew
Point
Rel
Hum
%
Delta-T
°C
Wind Press
QNH
hPa
Press
MSL
hPa
Rain
since 9 am
mm
Dir
 
Spd
km/h
Gust
km/h
Spd
kts
Gust
kts
28/11:30pm 9.3 6.5 5.3 76 1.8 SE 9 11 5 6 1024.0 - 0.0
28/11:00pm 9.4 7.0 5.4 76 1.8 ESE 7 9 4 5 1023.8 - 0.0
28/10:30pm 9.9 6.7 5.3 73 2.1 SE 11 13 6 7 1023.8 - 0.0
28/10:00pm 9.8 7.3 5.0 72 2.2 E 7 9 4 5 1023.7 - 0.0
28/09:30pm 10.6 7.8 5.2 69 2.5 E 9 11 5 6 1024.0 - 0.0
28/09:00pm 10.9 8.5 5.4 69 2.5 NE 7 9 4 5 1024.2 1024.1 0.0
28/08:30pm 12.0 9.2 5.2 63 3.2 E 9 11 5 6 1023.8 - 0.0
28/08:00pm 11.8 9.2 5.9 67 2.8 E 9 11 5 6 1023.6 - 0.0
28/07:30pm 12.4 10.0 5.3 62 3.3 E 7 9 4 5 1023.6 - 0.0
28/07:00pm 13.6 10.9 5.5 58 3.8 E 9 11 5 6 1023.0 - 0.0
28/06:30pm 14.4 11.7 5.5 55 4.3 SE 9 13 5 7 1022.8 - 0.0
28/06:00pm 15.6 12.6 4.3 47 5.3 ESE 9 13 5 7 1022.7 1022.6 0.0
28/05:30pm 16.8 12.7 4.2 43 6.0 SE 15 20 8 11 1022.2 - 0.0
28/05:00pm 17.6 13.1 4.2 41 6.4 SE 17 26 9 14 1021.9 - 0.0
28/04:30pm 17.9 13.8 4.5 41 6.4 SSE 15 22 8 12 1021.7 - 0.0
28/04:00pm 18.3 14.0 5.2 42 6.4 SE 17 22 9 12 1021.4 - 0.0
28/03:30pm 17.7 13.1 5.6 45 5.9 SSE 19 30 10 16 1021.0 - 0.0
28/03:00pm 18.8 14.9 7.3 47 5.9 SSE 17 24 9 13 1021.4 1021.3 0.0
28/02:30pm 17.9 14.4 7.0 49 5.5 S 15 22 8 12 1021.8 - 0.0
28/02:00pm 17.9 15.3 7.6 51 5.3 SSE 11 19 6 10 1022.1 - 0.0
28/01:30pm 17.4 15.1 7.5 52 5.0 ESE 9 19 5 10 1022.6 - 0.0
28/01:00pm 17.9 16.1 9.5 58 4.5 S 9 15 5 8 1023.1 - 0.0
28/12:30pm 17.1 14.9 9.5 61 4.0 S 11 17 6 9 1023.7 - 0.0
28/12:00pm 16.9 15.2 11.2 69 3.1 SE 11 19 6 10 1023.8 1023.7 0.0
28/11:30am 16.0 14.5 10.7 71 2.8 ESE 9 13 5 7 1024.5 - 0.0
28/11:00am 15.1 14.6 11.9 81 1.7 S 6 11 3 6 1024.8 - 0.0
28/10:30am 14.4 13.8 12.3 87 1.2 SSW 7 9 4 5 1025.3 - 0.0
28/10:00am 13.0 12.2 11.2 89 1.0 S 6 9 3 5 1025.4 - 0.0
28/09:30am 12.2 12.6 11.1 93 0.6 CALM 0 0 0 0 1025.4 - 0.0
28/09:00am 11.5 10.6 10.6 94 0.5 NNW 6 7 3 4 1025.4 1025.3 3.8
28/08:30am 10.9 11.0 10.0 94 0.5 CALM 0 0 0 0 1025.2 - 3.8
28/08:00am 10.7 10.7 9.8 94 0.5 CALM 0 6 0 3 1024.9 - 3.8
28/07:30am 10.6 9.5 9.8 95 0.4 NNW 6 9 3 5 1024.6 - 3.8
28/07:00am 10.5 9.1 9.6 94 0.5 W 7 11 4 6 1024.4 - 3.8
28/06:30am 10.9 9.8 10.0 94 0.5 NW 6 9 3 5 1024.0 - 3.8
28/06:00am 10.9 9.6 10.1 95 0.4 NNW 7 9 4 5 1023.6 1023.5 3.8
28/05:30am 10.7 9.6 9.8 94 0.5 NW 6 7 3 4 1023.2 - 3.8
28/05:00am 10.4 9.2 9.5 94 0.5 N 6 7 3 4 1022.9 - 3.6
28/04:30am 10.1 8.8 9.2 94 0.5 N 6 9 3 5 1022.6 - 3.6
28/04:00am 10.3 9.1 9.4 94 0.5 N 6 7 3 4 1022.4 - 3.6
28/03:30am 10.5 10.4 9.6 94 0.5 CALM 0 6 0 3 1022.4 - 3.6
28/03:00am 10.5 9.7 9.6 94 0.5 NW 4 7 2 4 1022.4 1022.3 3.6
28/02:30am 10.7 10.3 9.8 94 0.5 NNE 2 6 1 3 1022.6 - 3.6
28/02:00am 11.0 11.1 10.1 94 0.5 CALM 0 0 0 0 1022.7 - 3.6
28/01:30am 11.0 11.1 10.1 94 0.5 CALM 0 0 0 0 1023.0 - 3.6
28/01:00am 11.0 11.1 10.1 94 0.5 CALM 0 0 0 0 1023.1 - 3.4
28/12:30am 11.0 10.7 10.1 94 0.5 ESE 2 4 1 2 1023.3 - 3.4
28/12:00am 11.3 10.3 10.4 94 0.5 SE 6 7 3 4 1023.3 1023.2 3.4
 
Date/Time
EST
Temp
°C
App
Temp
°C
Dew
Point
Rel
Hum
%
Delta-T
°C
Wind Press
QNH
hPa
Press
MSL
hPa
Rain
since 9 am
mm
Dir
 
Spd
km/h
Gust
km/h
Spd
kts
Gust
kts
27/11:30pm 11.6 10.5 10.7 94 0.5 ESE 7 9 4 5 1023.2 - 3.4
27/11:00pm 10.8 10.8 9.7 93 0.6 CALM 0 0 0 0 1023.1 - 3.4
27/10:30pm 10.4 9.1 9.2 92 0.6 S 6 6 3 3 1023.1 - 3.4
27/10:00pm 10.7 10.5 9.1 90 0.8 CALM 0 0 0 0 1023.0 - 3.4
27/09:30pm 11.7 11.8 10.1 90 0.8 CALM 0 0 0 0 1022.9 - 3.4
27/09:00pm 12.3 12.5 10.7 90 0.8 CALM 0 0 0 0 1022.9 1022.8 3.4
27/08:30pm 13.4 14.0 11.8 90 0.9 CALM 0 0 0 0 1022.7 - 3.4
27/08:00pm 14.0 14.8 12.4 90 0.9 CALM 0 0 0 0 1022.4 - 3.4
27/07:30pm 14.2 14.7 12.8 91 0.8 S 2 6 1 3 1022.1 - 3.4
27/07:00pm 14.1 14.2 12.7 91 0.8 S 4 7 2 4 1021.8 - 3.4
27/06:30pm 14.4 15.3 12.8 90 0.9 CALM 0 0 0 0 1021.4 - 3.2
27/06:00pm 14.4 13.9 12.8 90 0.9 S 7 9 4 5 1021.1 1021.0 3.2
27/05:30pm 14.4 13.9 12.6 89 1.0 SSW 7 9 4 5 1020.7 - 3.2
27/05:00pm 14.5 14.1 12.9 90 0.9 SSW 7 9 4 5 1020.5 - 3.2
27/04:30pm 14.6 13.5 13.1 91 0.8 SSW 11 15 6 8 1020.5 - 3.2
27/04:00pm 14.5 13.7 12.9 90 0.9 WSW 9 11 5 6 1020.3 - 3.2

Other Formats:

Comma delimited format used in spreadsheet applications
http://www.bom.gov.au/fwo/IDQ60801/IDQ60801.94517.axf

JavaScript Object Notation format (JSON) in row-major order
http://www.bom.gov.au/fwo/IDQ60801/IDQ60801.94517.json